Aérodrome :
LOGIN :

S'inscrire | Disclaimer

   EN    FR    IT 

 










Légende :    VFR   VFR Marginal   IFR   IFR Intensif   IFR Très Intensif
Visi : 
Plafond : 
>= 8 km
>= 3000ft
5 à 8 km
1000 à 3000 ft
1500m à 5 km
500 à 1000 ft
800 à 1500m
200 à 500 ft
< 800m
< 200 ft
Symboles :   Orages  Brouillard  Fortes neiges  Fortes précipitations  Vent > 20 kt
SIGMETs :   Divers  Orages  Givrage  Turbulence  Onde Orograph.  Cendres Volcan.






- Altitude de l'aérodrome : 106 ft
- Code IATA : NRN


EDLV - Weeze

DERNIER METAR :
  • 051920Z 21011KT 5000 BR BKN005 03/02 Q1018

METARs EXPIRÉS :
  • 051850Z 21012KT 5000 BR BKN007 03/02 Q1018
  • 051820Z 20011KT 6000 BKN009 03/02 Q1018
  • 051750Z 21009KT 200V260 6000 BKN009 03/02 Q1019
  • 051720Z 22012KT 6000 BKN009 03/02 Q1019
  • 051650Z 22009KT 6000 BKN010 04/02 Q1019

TAF TAF EDLV
Valide du 05 à 18h jusqu'au 06 à 18h UTC


051700Z 0518/0618 21009KT 7000 BKN010
TEMPO 0518/0521 4000 BR BKN008
BECMG 0521/0524 BKN005
BECMG 0600/0603 21015G25KT
TEMPO 0612/0618 4000 RA



MET'MAP, la Météo Aéronautique d'un coup d'oeil ! - Copyright ORBIFLY Décembre 2007 - Disclaimer

ORBIFLY MET'MAP TEAM :

Programmation & Développement : Alexandra Zaïnal
Sur une idée originale de : Baudouin d'Aumeries
Assistance à la programmation : Marc-Olivier Méhu
Soutien technique & logistique : Manuel Goepfert

Contact : metmap@orbifly.com




SOURCES & CREDITS :

   NOAA